sensor_id;sensor_type;location;lat;lon;timestamp;pressure;altitude;pressure_sealevel;temperature;humidity
61119;BME280;51448;51.660;5.824;2023-01-13T00:01:27;100292.09;;;9.35;100.00
61119;BME280;51448;51.660;5.824;2023-01-13T00:03:55;100285.06;;;9.36;100.00
61119;BME280;51448;51.660;5.824;2023-01-13T00:06:24;100300.88;;;9.33;100.00
61119;BME280;51448;51.660;5.824;2023-01-13T00:08:52;100285.25;;;9.30;100.00
61119;BME280;51448;51.660;5.824;2023-01-13T00:11:21;100289.69;;;9.27;100.00
61119;BME280;51448;51.660;5.824;2023-01-13T00:13:49;100301.16;;;9.25;100.00
61119;BME280;51448;51.660;5.824;2023-01-13T00:16:18;100287.22;;;9.23;100.00
61119;BME280;51448;51.660;5.824;2023-01-13T00:18:46;100289.91;;;9.20;100.00
61119;BME280;51448;51.660;5.824;2023-01-13T00:21:23;100301.34;;;9.19;100.00
61119;BME280;51448;51.660;5.824;2023-01-13T00:23:52;100286.53;;;9.16;100.00
61119;BME280;51448;51.660;5.824;2023-01-13T00:26:24;100281.28;;;9.16;100.00
61119;BME280;51448;51.660;5.824;2023-01-13T00:28:57;100272.59;;;9.14;100.00
61119;BME280;51448;51.660;5.824;2023-01-13T00:31:26;100259.56;;;9.13;100.00
61119;BME280;51448;51.660;5.824;2023-01-13T00:33:56;100260.47;;;9.10;100.00
61119;BME280;51448;51.660;5.824;2023-01-13T00:36:26;100257.03;;;9.08;100.00
61119;BME280;51448;51.660;5.824;2023-01-13T00:38:54;100260.66;;;9.04;100.00
61119;BME280;51448;51.660;5.824;2023-01-13T00:41:23;100260.78;;;9.01;100.00
61119;BME280;51448;51.660;5.824;2023-01-13T00:43:52;100269.66;;;8.97;100.00
61119;BME280;51448;51.660;5.824;2023-01-13T00:46:20;100274.09;;;8.95;100.00
61119;BME280;51448;51.660;5.824;2023-01-13T00:48:49;100254.06;;;8.92;100.00
61119;BME280;51448;51.660;5.824;2023-01-13T00:51:19;100247.13;;;8.90;100.00
61119;BME280;51448;51.660;5.824;2023-01-13T00:53:49;100252.47;;;8.86;100.00
61119;BME280;51448;51.660;5.824;2023-01-13T00:56:22;100245.56;;;8.84;100.00
61119;BME280;51448;51.660;5.824;2023-01-13T00:59:09;100250.91;;;8.79;100.00
61119;BME280;51448;51.660;5.824;2023-01-13T01:01:38;100259.78;;;8.75;100.00
61119;BME280;51448;51.660;5.824;2023-01-13T01:04:07;100272.09;;;8.73;100.00
61119;BME280;51448;51.660;5.824;2023-01-13T01:06:34;100268.72;;;8.70;100.00
61119;BME280;51448;51.660;5.824;2023-01-13T01:09:03;100263.53;;;8.66;100.00
61119;BME280;51448;51.660;5.824;2023-01-13T01:11:32;100267.13;;;8.64;100.00
61119;BME280;51448;51.660;5.824;2023-01-13T01:14:02;100266.34;;;8.60;100.00
61119;BME280;51448;51.660;5.824;2023-01-13T01:16:31;100265.56;;;8.57;100.00
61119;BME280;51448;51.660;5.824;2023-01-13T01:19:00;100262.13;;;8.55;100.00
61119;BME280;51448;51.660;5.824;2023-01-13T01:21:28;100265.66;;;8.54;100.00
61119;BME280;51448;51.660;5.824;2023-01-13T01:23:58;100264.75;;;8.55;100.00
61119;BME280;51448;51.660;5.824;2023-01-13T01:26:28;100271.72;;;8.56;100.00
61119;BME280;51448;51.660;5.824;2023-01-13T01:28:57;100277.84;;;8.55;100.00
61119;BME280;51448;51.660;5.824;2023-01-13T01:31:27;100278.66;;;8.57;100.00
61119;BME280;51448;51.660;5.824;2023-01-13T01:33:58;100288.28;;;8.58;100.00
61119;BME280;51448;51.660;5.824;2023-01-13T01:36:28;100281.25;;;8.58;100.00
61119;BME280;51448;51.660;5.824;2023-01-13T01:39:02;100278.59;;;8.60;100.00
61119;BME280;51448;51.660;5.824;2023-01-13T01:41:32;100275.06;;;8.61;100.00
61119;BME280;51448;51.660;5.824;2023-01-13T01:44:06;100266.34;;;8.60;100.00
61119;BME280;51448;51.660;5.824;2023-01-13T01:46:55;100274.25;;;8.59;100.00
61119;BME280;51448;51.660;5.824;2023-01-13T01:49:32;100273.41;;;8.58;100.00
61119;BME280;51448;51.660;5.824;2023-01-13T01:52:05;100270.00;;;8.55;100.00
61119;BME280;51448;51.660;5.824;2023-01-13T01:54:57;100274.38;;;8.54;100.00
61119;BME280;51448;51.660;5.824;2023-01-13T01:57:29;100286.72;;;8.51;100.00
61119;BME280;51448;51.660;5.824;2023-01-13T02:00:06;100278.03;;;8.49;100.00
61119;BME280;51448;51.660;5.824;2023-01-13T02:02:42;100272.78;;;8.49;100.00
61119;BME280;51448;51.660;5.824;2023-01-13T02:05:13;100250.13;;;8.48;100.00
61119;BME280;51448;51.660;5.824;2023-01-13T02:07:42;100272.78;;;8.49;100.00
61119;BME280;51448;51.660;5.824;2023-01-13T02:10:14;100271.09;;;8.48;100.00
61119;BME280;51448;51.660;5.824;2023-01-13T02:12:46;100269.34;;;8.46;100.00
61119;BME280;51448;51.660;5.824;2023-01-13T02:15:26;100264.13;;;8.46;100.00
61119;BME280;51448;51.660;5.824;2023-01-13T02:21:34;100264.25;;;8.40;100.00
61119;BME280;51448;51.660;5.824;2023-01-13T02:24:34;100255.66;;;8.37;100.00
61119;BME280;51448;51.660;5.824;2023-01-13T02:38:46;100274.34;;;8.23;100.00
61119;BME280;51448;51.660;5.824;2023-01-13T02:41:26;100275.25;;;8.22;100.00
61119;BME280;51448;51.660;5.824;2023-01-13T02:44:23;100280.66;;;8.16;100.00
61119;BME280;51448;51.660;5.824;2023-01-13T02:47:19;100282.44;;;8.14;99.66
61119;BME280;51448;51.660;5.824;2023-01-13T02:49:53;100272.06;;;8.11;99.95
61119;BME280;51448;51.660;5.824;2023-01-13T02:52:33;100276.47;;;8.10;99.77
61119;BME280;51448;51.660;5.824;2023-01-13T02:55:15;100266.03;;;8.07;99.98
61119;BME280;51448;51.660;5.824;2023-01-13T02:57:47;100262.56;;;8.06;99.54
61119;BME280;51448;51.660;5.824;2023-01-13T03:00:18;100252.09;;;8.06;99.88
61119;BME280;51448;51.660;5.824;2023-01-13T03:02:48;100252.97;;;8.05;100.00
61119;BME280;51448;51.660;5.824;2023-01-13T03:05:16;100256.50;;;8.06;100.00
61119;BME280;51448;51.660;5.824;2023-01-13T03:07:59;100252.94;;;8.07;99.96
61119;BME280;51448;51.660;5.824;2023-01-13T03:11:07;100249.50;;;8.05;100.00
61119;BME280;51448;51.660;5.824;2023-01-13T03:14:00;100246.81;;;8.08;99.89
61119;BME280;51448;51.660;5.824;2023-01-13T03:19:33;100238.91;;;8.10;100.00
61119;BME280;51448;51.660;5.824;2023-01-13T03:22:17;100243.28;;;8.09;100.00
61119;BME280;51448;51.660;5.824;2023-01-13T03:24:54;100232.78;;;8.11;100.00
61119;BME280;51448;51.660;5.824;2023-01-13T03:27:42;100226.63;;;8.12;100.00
61119;BME280;51448;51.660;5.824;2023-01-13T03:30:29;100223.97;;;8.13;100.00
61119;BME280;51448;51.660;5.824;2023-01-13T03:33:08;100225.72;;;8.14;100.00
61119;BME280;51448;51.660;5.824;2023-01-13T03:36:03;100222.16;;;8.15;100.00
61119;BME280;51448;51.660;5.824;2023-01-13T03:38:43;100228.19;;;8.19;100.00
61119;BME280;51448;51.660;5.824;2023-01-13T03:41:25;100217.72;;;8.19;100.00
61119;BME280;51448;51.660;5.824;2023-01-13T03:47:20;100212.38;;;8.22;100.00
61119;BME280;51448;51.660;5.824;2023-01-13T03:50:16;100207.13;;;8.22;99.92
61119;BME280;51448;51.660;5.824;2023-01-13T03:52:58;100208.75;;;8.26;98.96
61119;BME280;51448;51.660;5.824;2023-01-13T03:55:40;100209.56;;;8.28;99.27
61119;BME280;51448;51.660;5.824;2023-01-13T03:58:16;100220.88;;;8.30;98.47
61119;BME280;51448;51.660;5.824;2023-01-13T04:00:58;100216.44;;;8.32;98.36
61119;BME280;51448;51.660;5.824;2023-01-13T04:06:39;100209.38;;;8.36;97.85
61119;BME280;51448;51.660;5.824;2023-01-13T04:09:17;100212.84;;;8.36;97.18
61119;BME280;51448;51.660;5.824;2023-01-13T04:11:59;100211.03;;;8.38;96.54
61119;BME280;51448;51.660;5.824;2023-01-13T04:14:35;100209.28;;;8.39;95.90
61119;BME280;51448;51.660;5.824;2023-01-13T04:17:03;100206.59;;;8.40;95.50
61119;BME280;51448;51.660;5.824;2023-01-13T04:19:31;100217.09;;;8.40;95.21
61119;BME280;51448;51.660;5.824;2023-01-13T04:21:59;100218.00;;;8.41;94.03
61119;BME280;51448;51.660;5.824;2023-01-13T04:24:26;100233.66;;;8.42;93.45
61119;BME280;51448;51.660;5.824;2023-01-13T04:26:54;100232.78;;;8.43;93.27
61119;BME280;51448;51.660;5.824;2023-01-13T04:29:22;100237.09;;;8.44;92.36
61119;BME280;51448;51.660;5.824;2023-01-13T04:31:50;100264.22;;;8.43;92.51
61119;BME280;51448;51.660;5.824;2023-01-13T04:34:17;100234.47;;;8.44;92.21
61119;BME280;51448;51.660;5.824;2023-01-13T04:36:45;100230.16;;;8.43;92.80
61119;BME280;51448;51.660;5.824;2023-01-13T04:39:12;100231.00;;;8.44;91.99
61119;BME280;51448;51.660;5.824;2023-01-13T04:41:40;100231.91;;;8.43;92.46
61119;BME280;51448;51.660;5.824;2023-01-13T04:44:26;100256.47;;;8.39;93.27
61119;BME280;51448;51.660;5.824;2023-01-13T04:46:53;100236.41;;;8.36;93.04
61119;BME280;51448;51.660;5.824;2023-01-13T04:49:21;100239.09;;;8.35;93.44
61119;BME280;51448;51.660;5.824;2023-01-13T04:51:49;100254.81;;;8.35;94.51
61119;BME280;51448;51.660;5.824;2023-01-13T04:54:16;100241.78;;;8.32;94.65
61119;BME280;51448;51.660;5.824;2023-01-13T04:56:44;100238.31;;;8.31;94.96
61119;BME280;51448;51.660;5.824;2023-01-13T04:59:12;100233.13;;;8.30;95.44
61119;BME280;51448;51.660;5.824;2023-01-13T05:01:40;100227.97;;;8.26;96.13
61119;BME280;51448;51.660;5.824;2023-01-13T05:04:08;100234.16;;;8.24;95.48
61119;BME280;51448;51.660;5.824;2023-01-13T05:06:35;100218.44;;;8.24;96.03
61119;BME280;51448;51.660;5.824;2023-01-13T05:09:03;100229.84;;;8.21;96.57
61119;BME280;51448;51.660;5.824;2023-01-13T05:11:30;100234.31;;;8.18;96.90
61119;BME280;51448;51.660;5.824;2023-01-13T05:14:17;100232.69;;;8.14;96.56
61119;BME280;51448;51.660;5.824;2023-01-13T05:17:03;100231.97;;;8.09;97.24
61119;BME280;51448;51.660;5.824;2023-01-13T05:19:33;100224.19;;;8.05;97.39
61119;BME280;51448;51.660;5.824;2023-01-13T05:22:01;100241.75;;;8.02;97.98
61119;BME280;51448;51.660;5.824;2023-01-13T05:24:48;100233.16;;;7.97;97.96
61119;BME280;51448;51.660;5.824;2023-01-13T05:27:35;100234.09;;;7.94;98.08
61119;BME280;51448;51.660;5.824;2023-01-13T05:30:03;100231.47;;;7.94;98.40
61119;BME280;51448;51.660;5.824;2023-01-13T05:32:31;100229.75;;;7.93;98.25
61119;BME280;51448;51.660;5.824;2023-01-13T05:34:59;100222.84;;;7.91;98.44
61119;BME280;51448;51.660;5.824;2023-01-13T05:37:26;100223.69;;;7.91;98.46
61119;BME280;51448;51.660;5.824;2023-01-13T05:39:54;100216.75;;;7.90;98.18
61119;BME280;51448;51.660;5.824;2023-01-13T05:42:40;100227.22;;;7.90;98.71
61119;BME280;51448;51.660;5.824;2023-01-13T05:45:26;100242.94;;;7.90;99.02
61119;BME280;51448;51.660;5.824;2023-01-13T05:47:57;100246.38;;;7.92;98.84
61119;BME280;51448;51.660;5.824;2023-01-13T05:50:24;100255.91;;;7.95;98.58
61119;BME280;51448;51.660;5.824;2023-01-13T05:52:52;100251.50;;;7.95;98.42
61119;BME280;51448;51.660;5.824;2023-01-13T05:55:19;100249.78;;;7.96;98.55
61119;BME280;51448;51.660;5.824;2023-01-13T05:57:47;100252.28;;;7.99;98.89
61119;BME280;51448;51.660;5.824;2023-01-13T06:00:14;100264.50;;;8.00;98.37
61119;BME280;51448;51.660;5.824;2023-01-13T06:02:42;100267.94;;;8.02;98.20
61119;BME280;51448;51.660;5.824;2023-01-13T06:05:10;100258.31;;;8.02;97.91
61119;BME280;51448;51.660;5.824;2023-01-13T06:07:37;100260.03;;;8.03;98.35
61119;BME280;51448;51.660;5.824;2023-01-13T06:10:05;100267.88;;;8.03;97.64
61119;BME280;51448;51.660;5.824;2023-01-13T06:12:34;100270.50;;;8.03;97.54
61119;BME280;51448;51.660;5.824;2023-01-13T06:15:01;100263.56;;;8.02;98.04
61119;BME280;51448;51.660;5.824;2023-01-13T06:17:29;100265.34;;;8.00;98.04
61119;BME280;51448;51.660;5.824;2023-01-13T06:19:56;100279.41;;;7.98;97.52
61119;BME280;51448;51.660;5.824;2023-01-13T06:22:26;100285.56;;;7.95;97.78
61119;BME280;51448;51.660;5.824;2023-01-13T06:24:58;100280.47;;;7.89;97.35
61119;BME280;51448;51.660;5.824;2023-01-13T06:27:26;100273.59;;;7.85;97.06
61119;BME280;51448;51.660;5.824;2023-01-13T06:29:56;100276.31;;;7.82;97.65
61119;BME280;51448;51.660;5.824;2023-01-13T06:32:32;100276.38;;;7.79;96.90
61119;BME280;51448;51.660;5.824;2023-01-13T06:35:08;100271.22;;;7.76;97.58
61119;BME280;51448;51.660;5.824;2023-01-13T06:37:42;100280.91;;;7.72;97.49
61119;BME280;51448;51.660;5.824;2023-01-13T06:40:12;100265.31;;;7.69;97.35
61119;BME280;51448;51.660;5.824;2023-01-13T06:42:40;100268.84;;;7.66;97.45
61119;BME280;51448;51.660;5.824;2023-01-13T06:45:28;100276.78;;;7.63;97.00
61119;BME280;51448;51.660;5.824;2023-01-13T06:47:57;100276.78;;;7.63;97.26
61119;BME280;51448;51.660;5.824;2023-01-13T06:50:27;100270.75;;;7.60;97.18
61119;BME280;51448;51.660;5.824;2023-01-13T06:52:55;100279.50;;;7.59;97.70
61119;BME280;51448;51.660;5.824;2023-01-13T06:55:22;100274.34;;;7.56;97.58
61119;BME280;51448;51.660;5.824;2023-01-13T06:57:52;100283.94;;;7.55;97.13
61119;BME280;51448;51.660;5.824;2023-01-13T07:00:22;100273.50;;;7.54;97.20
61119;BME280;51448;51.660;5.824;2023-01-13T07:02:52;100282.19;;;7.56;96.58
61119;BME280;51448;51.660;5.824;2023-01-13T07:05:21;100289.19;;;7.55;96.71
61119;BME280;51448;51.660;5.824;2023-01-13T07:07:48;100279.59;;;7.54;96.75
61119;BME280;51448;51.660;5.824;2023-01-13T07:10:16;100267.44;;;7.53;96.51
61119;BME280;51448;51.660;5.824;2023-01-13T07:12:48;100282.22;;;7.54;96.20
61119;BME280;51448;51.660;5.824;2023-01-13T07:15:34;100282.28;;;7.53;96.27
61119;BME280;51448;51.660;5.824;2023-01-13T07:18:02;100282.31;;;7.51;96.62
61119;BME280;51448;51.660;5.824;2023-01-13T07:20:30;100284.00;;;7.52;95.99
61119;BME280;51448;51.660;5.824;2023-01-13T07:22:57;100288.44;;;7.50;96.69
61119;BME280;51448;51.660;5.824;2023-01-13T07:25:25;100302.31;;;7.54;95.87
61119;BME280;51448;51.660;5.824;2023-01-13T07:27:52;100296.19;;;7.55;95.71
61119;BME280;51448;51.660;5.824;2023-01-13T07:30:29;100297.88;;;7.57;95.55
61119;BME280;51448;51.660;5.824;2023-01-13T07:32:56;100290.84;;;7.59;94.90
61119;BME280;51448;51.660;5.824;2023-01-13T07:35:24;100282.06;;;7.60;95.11
61119;BME280;51448;51.660;5.824;2023-01-13T07:37:51;100301.22;;;7.62;94.88
61119;BME280;51448;51.660;5.824;2023-01-13T07:40:19;100295.13;;;7.62;94.87
61119;BME280;51448;51.660;5.824;2023-01-13T07:42:46;100301.22;;;7.62;94.35
61119;BME280;51448;51.660;5.824;2023-01-13T07:45:33;100322.25;;;7.59;94.71
61119;BME280;51448;51.660;5.824;2023-01-13T07:48:00;100303.88;;;7.61;94.80
61119;BME280;51448;51.660;5.824;2023-01-13T07:50:28;100306.53;;;7.59;94.27
61119;BME280;51448;51.660;5.824;2023-01-13T07:52:58;100312.72;;;7.57;94.70
61119;BME280;51448;51.660;5.824;2023-01-13T07:55:26;100309.22;;;7.56;95.03
61119;BME280;51448;51.660;5.824;2023-01-13T07:57:53;100310.13;;;7.55;94.75
61119;BME280;51448;51.660;5.824;2023-01-13T08:00:21;100317.97;;;7.55;94.10
61119;BME280;51448;51.660;5.824;2023-01-13T08:02:49;100312.75;;;7.55;94.20
61119;BME280;51448;51.660;5.824;2023-01-13T08:05:17;100315.34;;;7.55;93.87
61119;BME280;51448;51.660;5.824;2023-01-13T08:07:44;100304.88;;;7.55;93.90
61119;BME280;51448;51.660;5.824;2023-01-13T08:10:12;100316.25;;;7.54;94.06
61119;BME280;51448;51.660;5.824;2023-01-13T08:12:39;100317.97;;;7.55;93.87
61119;BME280;51448;51.660;5.824;2023-01-13T08:15:26;100325.81;;;7.55;94.11
61119;BME280;51448;51.660;5.824;2023-01-13T08:17:53;100321.38;;;7.59;93.10
61119;BME280;51448;51.660;5.824;2023-01-13T08:20:21;100313.53;;;7.59;93.00
61119;BME280;51448;51.660;5.824;2023-01-13T08:22:48;100326.56;;;7.60;93.09
61119;BME280;51448;51.660;5.824;2023-01-13T08:25:16;100323.03;;;7.63;92.65
61119;BME280;51448;51.660;5.824;2023-01-13T08:27:43;100321.28;;;7.63;93.02
61119;BME280;51448;51.660;5.824;2023-01-13T08:30:11;100346.53;;;7.64;93.09
61119;BME280;51448;51.660;5.824;2023-01-13T08:32:38;100334.31;;;7.65;92.95
61119;BME280;51448;51.660;5.824;2023-01-13T08:35:06;100344.75;;;7.66;93.06
61119;BME280;51448;51.660;5.824;2023-01-13T08:37:34;100339.50;;;7.66;93.40
61119;BME280;51448;51.660;5.824;2023-01-13T08:40:02;100342.94;;;7.69;93.32
61119;BME280;51448;51.660;5.824;2023-01-13T08:42:31;100342.06;;;7.70;92.88
61119;BME280;51448;51.660;5.824;2023-01-13T08:44:58;100348.13;;;7.72;92.66
61119;BME280;51448;51.660;5.824;2023-01-13T08:47:27;100350.75;;;7.72;92.80
61119;BME280;51448;51.660;5.824;2023-01-13T08:49:54;100352.41;;;7.74;93.26
61119;BME280;51448;51.660;5.824;2023-01-13T08:52:22;100353.25;;;7.75;93.57
61119;BME280;51448;51.660;5.824;2023-01-13T08:54:50;100342.75;;;7.76;93.65
61119;BME280;51448;51.660;5.824;2023-01-13T08:57:17;100355.81;;;7.78;93.38
61119;BME280;51448;51.660;5.824;2023-01-13T08:59:48;100354.88;;;7.80;93.08
61119;BME280;51448;51.660;5.824;2023-01-13T09:02:18;100354.00;;;7.81;93.69
61119;BME280;51448;51.660;5.824;2023-01-13T09:04:48;100353.94;;;7.83;93.73
61119;BME280;51448;51.660;5.824;2023-01-13T09:07:16;100364.31;;;7.88;92.73
61119;BME280;51448;51.660;5.824;2023-01-13T09:09:44;100356.47;;;7.88;93.38
61119;BME280;51448;51.660;5.824;2023-01-13T09:12:13;100363.38;;;7.90;93.42
61119;BME280;51448;51.660;5.824;2023-01-13T09:15:02;100359.81;;;7.93;93.18
61119;BME280;51448;51.660;5.824;2023-01-13T09:17:32;100371.09;;;7.96;93.48
61119;BME280;51448;51.660;5.824;2023-01-13T09:19:59;100368.38;;;7.99;93.14
61119;BME280;51448;51.660;5.824;2023-01-13T09:22:27;100380.50;;;8.03;93.17
61119;BME280;51448;51.660;5.824;2023-01-13T09:24:54;100366.34;;;8.12;92.71
61119;BME280;51448;51.660;5.824;2023-01-13T09:27:22;100373.09;;;8.21;92.81
61119;BME280;51448;51.660;5.824;2023-01-13T09:29:50;100381.59;;;8.31;92.67
61119;BME280;51448;51.660;5.824;2023-01-13T09:32:18;100386.56;;;8.40;92.43
61119;BME280;51448;51.660;5.824;2023-01-13T09:34:45;100385.56;;;8.47;92.01
61119;BME280;51448;51.660;5.824;2023-01-13T09:37:31;100398.53;;;8.52;91.64
61119;BME280;51448;51.660;5.824;2023-01-13T09:40:11;100390.53;;;8.56;92.10
61119;BME280;51448;51.660;5.824;2023-01-13T09:45:50;100407.91;;;8.60;91.16
61119;BME280;51448;51.660;5.824;2023-01-13T09:48:29;100411.34;;;8.62;91.14
61119;BME280;51448;51.660;5.824;2023-01-13T09:51:25;100395.66;;;8.61;91.54
61119;BME280;51448;51.660;5.824;2023-01-13T09:54:02;100401.03;;;8.56;91.08
61119;BME280;51448;51.660;5.824;2023-01-13T09:56:37;100399.34;;;8.54;91.42
61119;BME280;51448;51.660;5.824;2023-01-13T09:59:09;100403.75;;;8.53;91.85
61119;BME280;51448;51.660;5.824;2023-01-13T10:01:47;100401.97;;;8.54;91.81
61119;BME280;51448;51.660;5.824;2023-01-13T10:04:25;100409.84;;;8.54;91.71
61119;BME280;51448;51.660;5.824;2023-01-13T10:06:58;100408.84;;;8.58;91.84
61119;BME280;51448;51.660;5.824;2023-01-13T10:09:43;100420.06;;;8.63;90.87
61119;BME280;51448;51.660;5.824;2023-01-13T10:12:21;100428.69;;;8.68;90.79
61119;BME280;51448;51.660;5.824;2023-01-13T10:15:14;100428.66;;;8.70;90.64
61119;BME280;51448;51.660;5.824;2023-01-13T10:18:09;100438.19;;;8.72;90.94
61119;BME280;51448;51.660;5.824;2023-01-13T10:27:36;100446.25;;;8.64;92.38
61119;BME280;51448;51.660;5.824;2023-01-13T10:29:57;100452.44;;;8.62;93.39
61119;BME280;51448;51.660;5.824;2023-01-13T10:32:25;100454.22;;;8.60;93.48
61119;BME280;51448;51.660;5.824;2023-01-13T10:34:52;100450.84;;;8.55;94.25
61119;BME280;51448;51.660;5.824;2023-01-13T10:37:25;100458.03;;;8.48;94.39
61119;BME280;51448;51.660;5.824;2023-01-13T10:39:55;100463.38;;;8.43;94.64
61119;BME280;51448;51.660;5.824;2023-01-13T10:42:27;100460.88;;;8.37;95.56
61119;BME280;51448;51.660;5.824;2023-01-13T10:44:56;100462.75;;;8.32;96.31
61119;BME280;51448;51.660;5.824;2023-01-13T10:47:27;100468.19;;;8.24;96.35
61119;BME280;51448;51.660;5.824;2023-01-13T10:50:01;100483.97;;;8.21;96.09
61119;BME280;51448;51.660;5.824;2023-01-13T10:52:32;100492.00;;;8.14;97.34
61119;BME280;51448;51.660;5.824;2023-01-13T10:57:52;100503.66;;;8.02;98.99
61119;BME280;51448;51.660;5.824;2023-01-13T11:00:29;100505.47;;;7.98;98.64
61119;BME280;51448;51.660;5.824;2023-01-13T11:03:20;100512.47;;;7.98;98.93
61119;BME280;51448;51.660;5.824;2023-01-13T11:05:53;100509.94;;;7.93;99.49
61119;BME280;51448;51.660;5.824;2023-01-13T11:08:39;100504.69;;;7.93;99.78
61119;BME280;51448;51.660;5.824;2023-01-13T11:11:26;100496.81;;;7.95;100.00
61119;BME280;51448;51.660;5.824;2023-01-13T11:14:09;100507.28;;;7.95;100.00
61119;BME280;51448;51.660;5.824;2023-01-13T11:23:02;100522.19;;;7.91;100.00
61119;BME280;51448;51.660;5.824;2023-01-13T11:25:44;100518.69;;;7.92;100.00
61119;BME280;51448;51.660;5.824;2023-01-13T11:28:31;100522.16;;;7.94;100.00
61119;BME280;51448;51.660;5.824;2023-01-13T11:31:25;100510.81;;;7.94;100.00
61119;BME280;51448;51.660;5.824;2023-01-13T11:34:11;100522.16;;;7.94;100.00
61119;BME280;51448;51.660;5.824;2023-01-13T11:36:50;100510.72;;;7.97;100.00
61119;BME280;51448;51.660;5.824;2023-01-13T11:39:26;100515.03;;;7.99;100.00
61119;BME280;51448;51.660;5.824;2023-01-13T11:42:27;100530.59;;;8.05;100.00
61119;BME280;51448;51.660;5.824;2023-01-13T11:48:01;100513.78;;;8.16;100.00
61119;BME280;51448;51.660;5.824;2023-01-13T11:53:21;100515.94;;;8.36;99.53
61119;BME280;51448;51.660;5.824;2023-01-13T12:04:58;100517.69;;;8.73;98.21
61119;BME280;51448;51.660;5.824;2023-01-13T12:08:11;100515.56;;;8.87;96.69
61119;BME280;51448;51.660;5.824;2023-01-13T12:11:00;100528.50;;;8.95;95.82
61119;BME280;51448;51.660;5.824;2023-01-13T12:16:48;100548.50;;;8.99;94.85
61119;BME280;51448;51.660;5.824;2023-01-13T12:19:23;100539.84;;;8.95;95.00
61119;BME280;51448;51.660;5.824;2023-01-13T12:22:10;100544.25;;;8.95;94.25
61119;BME280;51448;51.660;5.824;2023-01-13T12:24:46;100562.72;;;8.90;94.88
61119;BME280;51448;51.660;5.824;2023-01-13T12:27:40;100553.16;;;8.88;95.33
61119;BME280;51448;51.660;5.824;2023-01-13T12:30:35;100557.72;;;8.79;95.71
61119;BME280;51448;51.660;5.824;2023-01-13T12:38:53;100580.91;;;8.60;95.87
61119;BME280;51448;51.660;5.824;2023-01-13T12:41:41;100570.53;;;8.57;95.90
61119;BME280;51448;51.660;5.824;2023-01-13T12:44:30;100579.34;;;8.53;96.25
61119;BME280;51448;51.660;5.824;2023-01-13T12:46:58;100572.38;;;8.52;96.08
61119;BME280;51448;51.660;5.824;2023-01-13T12:49:33;100579.34;;;8.53;95.20
61119;BME280;51448;51.660;5.824;2023-01-13T12:52:13;100576.72;;;8.53;94.95
61119;BME280;51448;51.660;5.824;2023-01-13T12:57:20;100582.97;;;8.48;95.64
61119;BME280;51448;51.660;5.824;2023-01-13T13:02:41;100590.84;;;8.48;95.16
61119;BME280;51448;51.660;5.824;2023-01-13T13:07:44;100590.84;;;8.48;94.45
61119;BME280;51448;51.660;5.824;2023-01-13T13:10:36;100602.19;;;8.48;94.95
61119;BME280;51448;51.660;5.824;2023-01-13T13:13:20;100593.47;;;8.48;94.97
61119;BME280;51448;51.660;5.824;2023-01-13T13:18:52;100627.53;;;8.48;95.05
61119;BME280;51448;51.660;5.824;2023-01-13T13:24:39;100616.88;;;8.55;95.67
61119;BME280;51448;51.660;5.824;2023-01-13T13:27:26;100608.00;;;8.61;95.03
61119;BME280;51448;51.660;5.824;2023-01-13T13:30:12;100643.72;;;8.65;94.89
61119;BME280;51448;51.660;5.824;2023-01-13T13:33:10;100629.66;;;8.69;95.34
61119;BME280;51448;51.660;5.824;2023-01-13T13:38:52;100641.69;;;8.78;93.50
61119;BME280;51448;51.660;5.824;2023-01-13T13:41:52;100645.19;;;8.78;93.35
61119;BME280;51448;51.660;5.824;2023-01-13T13:44:49;100647.81;;;8.78;93.57
61119;BME280;51448;51.660;5.824;2023-01-13T13:47:36;100650.41;;;8.78;93.96
61119;BME280;51448;51.660;5.824;2023-01-13T13:50:10;100651.31;;;8.77;93.08
61119;BME280;51448;51.660;5.824;2023-01-13T13:52:43;100659.22;;;8.76;93.37
61119;BME280;51448;51.660;5.824;2023-01-13T13:55:27;100670.59;;;8.75;93.01
61119;BME280;51448;51.660;5.824;2023-01-13T13:57:57;100677.63;;;8.73;93.64
61119;BME280;51448;51.660;5.824;2023-01-13T14:00:33;100678.50;;;8.73;92.48
61119;BME280;51448;51.660;5.824;2023-01-13T14:03:30;100681.13;;;8.73;92.92
61119;BME280;51448;51.660;5.824;2023-01-13T14:06:03;100689.03;;;8.72;92.97
61119;BME280;51448;51.660;5.824;2023-01-13T14:08:34;100688.09;;;8.74;92.73
61119;BME280;51448;51.660;5.824;2023-01-13T14:11:25;100699.44;;;8.75;92.43
61119;BME280;51448;51.660;5.824;2023-01-13T14:14:10;100690.72;;;8.74;92.08
61119;BME280;51448;51.660;5.824;2023-01-13T14:16:40;100707.34;;;8.73;92.65
61119;BME280;51448;51.660;5.824;2023-01-13T14:19:33;100716.00;;;8.77;91.83
61119;BME280;51448;51.660;5.824;2023-01-13T14:22:03;100725.63;;;8.78;92.01
61119;BME280;51448;51.660;5.824;2023-01-13T14:24:32;100736.94;;;8.80;91.47
61119;BME280;51448;51.660;5.824;2023-01-13T14:27:14;100737.69;;;8.85;92.02
61119;BME280;51448;51.660;5.824;2023-01-13T14:29:44;100742.91;;;8.85;91.95
61119;BME280;51448;51.660;5.824;2023-01-13T14:32:14;100740.19;;;8.90;91.49
61119;BME280;51448;51.660;5.824;2023-01-13T14:34:46;100740.19;;;8.90;91.43
61119;BME280;51448;51.660;5.824;2023-01-13T14:37:25;100753.28;;;8.91;91.27
61119;BME280;51448;51.660;5.824;2023-01-13T14:40:03;100762.06;;;8.90;90.81
61119;BME280;51448;51.660;5.824;2023-01-13T14:42:31;100760.31;;;8.89;91.18
61119;BME280;51448;51.660;5.824;2023-01-13T14:45:01;100756.84;;;8.89;91.41
61119;BME280;51448;51.660;5.824;2023-01-13T14:47:31;100766.47;;;8.88;91.27
61119;BME280;51448;51.660;5.824;2023-01-13T14:50:11;100769.97;;;8.89;91.75
61119;BME280;51448;51.660;5.824;2023-01-13T14:52:51;100784.84;;;8.86;91.70
61119;BME280;51448;51.660;5.824;2023-01-13T14:55:32;100774.38;;;8.86;91.51
61119;BME280;51448;51.660;5.824;2023-01-13T14:58:24;100789.28;;;8.84;91.78
61119;BME280;51448;51.660;5.824;2023-01-13T15:01:27;100786.66;;;8.84;90.37